sensor_id;sensor_type;location;lat;lon;timestamp;pressure;altitude;pressure_sealevel;temperature
8533;BMP280;4304;53.876;10.662;2022-12-17T00:00:29;103851.03;;;-139.81
8533;BMP280;4304;53.876;10.662;2022-12-17T00:02:58;103865.16;;;-139.81
8533;BMP280;4304;53.876;10.662;2022-12-17T00:05:23;103846.97;;;-139.81
8533;BMP280;4304;53.876;10.662;2022-12-17T00:07:55;103911.63;;;-139.81
8533;BMP280;4304;53.876;10.662;2022-12-17T00:10:21;103849.00;;;-139.81
8533;BMP280;4304;53.876;10.662;2022-12-17T00:12:46;103901.53;;;-139.81
8533;BMP280;4304;53.876;10.662;2022-12-17T00:15:12;103883.34;;;-139.81
8533;BMP280;4304;53.876;10.662;2022-12-17T00:17:37;103923.75;;;-139.81
8533;BMP280;4304;53.876;10.662;2022-12-17T00:20:02;103952.03;;;-139.81
8533;BMP280;4304;53.876;10.662;2022-12-17T00:22:28;103988.41;;;-139.81
8533;BMP280;4304;53.876;10.662;2022-12-17T00:24:53;103964.16;;;-139.81
8533;BMP280;4304;53.876;10.662;2022-12-17T00:27:18;103984.34;;;-139.81
8533;BMP280;4304;53.876;10.662;2022-12-17T00:29:51;104073.25;;;-139.81
8533;BMP280;4304;53.876;10.662;2022-12-17T00:32:17;104008.59;;;-139.81
8533;BMP280;4304;53.876;10.662;2022-12-17T00:34:42;104079.31;;;-139.81
8533;BMP280;4304;53.876;10.662;2022-12-17T00:37:07;104111.63;;;-139.81
8533;BMP280;4304;53.876;10.662;2022-12-17T00:39:32;104129.81;;;-139.81
8533;BMP280;4304;53.876;10.662;2022-12-17T00:41:58;104141.94;;;-139.81
8533;BMP280;4304;53.876;10.662;2022-12-17T00:44:23;104145.97;;;-139.81
8533;BMP280;4304;53.876;10.662;2022-12-17T00:46:48;104125.78;;;-139.81
8533;BMP280;4304;53.876;10.662;2022-12-17T00:49:13;104198.50;;;-139.81
8533;BMP280;4304;53.876;10.662;2022-12-17T00:51:39;104210.63;;;-139.81
8533;BMP280;4304;53.876;10.662;2022-12-17T00:54:04;104279.31;;;-139.81
8533;BMP280;4304;53.876;10.662;2022-12-17T00:56:29;104257.09;;;-139.81
8533;BMP280;4304;53.876;10.662;2022-12-17T00:58:54;104358.13;;;-139.81
8533;BMP280;4304;53.876;10.662;2022-12-17T01:01:20;104412.69;;;-139.81
8533;BMP280;4304;53.876;10.662;2022-12-17T01:03:45;104497.53;;;-139.81
8533;BMP280;4304;53.876;10.662;2022-12-17T01:06:10;104483.38;;;-139.81
8533;BMP280;4304;53.876;10.662;2022-12-17T01:08:36;104493.50;;;-139.81
8533;BMP280;4304;53.876;10.662;2022-12-17T01:11:04;104479.34;;;-139.81
8533;BMP280;4304;53.876;10.662;2022-12-17T01:13:29;104517.75;;;-139.81
8533;BMP280;4304;53.876;10.662;2022-12-17T01:16:01;104564.22;;;-139.81
8533;BMP280;4304;53.876;10.662;2022-12-17T01:18:33;104588.47;;;-139.81
8533;BMP280;4304;53.876;10.662;2022-12-17T01:20:58;104554.13;;;-139.81
8533;BMP280;4304;53.876;10.662;2022-12-17T01:23:23;104574.31;;;-139.81
8533;BMP280;4304;53.876;10.662;2022-12-17T01:25:53;104576.34;;;-139.81
8533;BMP280;4304;53.876;10.662;2022-12-17T01:28:22;104628.88;;;-139.81
8533;BMP280;4304;53.876;10.662;2022-12-17T01:30:49;104608.66;;;-139.81
8533;BMP280;4304;53.876;10.662;2022-12-17T01:33:14;104562.19;;;-139.81
8533;BMP280;4304;53.876;10.662;2022-12-17T01:35:39;104546.03;;;-139.81
8533;BMP280;4304;53.876;10.662;2022-12-17T01:38:17;104634.94;;;-139.81
8533;BMP280;4304;53.876;10.662;2022-12-17T01:40:43;104588.47;;;-139.81
8533;BMP280;4304;53.876;10.662;2022-12-17T01:43:11;104643.03;;;-139.81
8533;BMP280;4304;53.876;10.662;2022-12-17T01:45:40;104612.72;;;-139.81
8533;BMP280;4304;53.876;10.662;2022-12-17T01:48:14;104408.63;;;-139.81
8533;BMP280;4304;53.876;10.662;2022-12-17T01:50:44;104548.06;;;-139.81
8533;BMP280;4304;53.876;10.662;2022-12-17T01:53:10;104533.91;;;-139.81
8533;BMP280;4304;53.876;10.662;2022-12-17T01:55:36;104537.94;;;-139.81
8533;BMP280;4304;53.876;10.662;2022-12-17T01:58:01;104537.94;;;-139.81
8533;BMP280;4304;53.876;10.662;2022-12-17T02:00:26;104542.00;;;-139.81
8533;BMP280;4304;53.876;10.662;2022-12-17T02:02:51;104562.19;;;-139.81
8533;BMP280;4304;53.876;10.662;2022-12-17T02:05:39;104584.44;;;-139.81
8533;BMP280;4304;53.876;10.662;2022-12-17T02:08:16;104592.50;;;-139.81
8533;BMP280;4304;53.876;10.662;2022-12-17T02:13:25;104570.28;;;-139.81
8533;BMP280;4304;53.876;10.662;2022-12-17T02:16:12;104612.72;;;-139.81
8533;BMP280;4304;53.876;10.662;2022-12-17T02:18:44;104626.84;;;-139.81
8533;BMP280;4304;53.876;10.662;2022-12-17T02:21:11;104647.06;;;-139.81
8533;BMP280;4304;53.876;10.662;2022-12-17T02:26:39;104651.09;;;-139.81
8533;BMP280;4304;53.876;10.662;2022-12-17T02:29:06;104671.31;;;-139.81
8533;BMP280;4304;53.876;10.662;2022-12-17T02:31:33;104659.19;;;-139.81
8533;BMP280;4304;53.876;10.662;2022-12-17T02:34:00;104681.41;;;-139.81
8533;BMP280;4304;53.876;10.662;2022-12-17T02:36:25;104715.78;;;-139.81
8533;BMP280;4304;53.876;10.662;2022-12-17T02:38:50;104705.66;;;-139.81
8533;BMP280;4304;53.876;10.662;2022-12-17T02:41:49;104752.16;;;-139.81
8533;BMP280;4304;53.876;10.662;2022-12-17T02:44:17;104705.66;;;-139.81
8533;BMP280;4304;53.876;10.662;2022-12-17T02:46:43;104655.16;;;-139.81
8533;BMP280;4304;53.876;10.662;2022-12-17T02:49:09;104580.38;;;-139.81
8533;BMP280;4304;53.876;10.662;2022-12-17T02:51:35;104634.94;;;-139.81
8533;BMP280;4304;53.876;10.662;2022-12-17T02:54:02;104602.63;;;-139.81
8533;BMP280;4304;53.876;10.662;2022-12-17T02:56:28;104513.69;;;-139.81
8533;BMP280;4304;53.876;10.662;2022-12-17T02:58:53;104521.78;;;-139.81
8533;BMP280;4304;53.876;10.662;2022-12-17T03:01:31;104622.81;;;-139.81
8533;BMP280;4304;53.876;10.662;2022-12-17T03:04:03;104556.13;;;-139.81
8533;BMP280;4304;53.876;10.662;2022-12-17T03:06:28;104558.16;;;-139.81
8533;BMP280;4304;53.876;10.662;2022-12-17T03:08:53;104542.00;;;-139.81
8533;BMP280;4304;53.876;10.662;2022-12-17T03:11:19;104511.69;;;-139.81
8533;BMP280;4304;53.876;10.662;2022-12-17T03:13:44;104497.53;;;-139.81
8533;BMP280;4304;53.876;10.662;2022-12-17T03:16:11;104491.47;;;-139.81
8533;BMP280;4304;53.876;10.662;2022-12-17T03:18:37;104420.75;;;-139.81
8533;BMP280;4304;53.876;10.662;2022-12-17T03:21:02;104432.88;;;-139.81
8533;BMP280;4304;53.876;10.662;2022-12-17T03:23:28;104414.69;;;-139.81
8533;BMP280;4304;53.876;10.662;2022-12-17T03:25:53;104382.38;;;-139.81
8533;BMP280;4304;53.876;10.662;2022-12-17T03:28:21;104356.09;;;-139.81
8533;BMP280;4304;53.876;10.662;2022-12-17T03:30:56;104481.38;;;-139.81
8533;BMP280;4304;53.876;10.662;2022-12-17T03:33:21;104426.81;;;-139.81
8533;BMP280;4304;53.876;10.662;2022-12-17T03:35:46;104457.13;;;-139.81
8533;BMP280;4304;53.876;10.662;2022-12-17T03:38:12;104481.38;;;-139.81
8533;BMP280;4304;53.876;10.662;2022-12-17T03:40:37;104497.53;;;-139.81
8533;BMP280;4304;53.876;10.662;2022-12-17T03:46:06;104586.44;;;-139.81
8533;BMP280;4304;53.876;10.662;2022-12-17T03:48:31;104628.88;;;-139.81
8533;BMP280;4304;53.876;10.662;2022-12-17T03:50:57;104630.91;;;-139.81
8533;BMP280;4304;53.876;10.662;2022-12-17T03:53:22;104618.78;;;-139.81
8533;BMP280;4304;53.876;10.662;2022-12-17T03:55:48;104586.44;;;-139.81
8533;BMP280;4304;53.876;10.662;2022-12-17T03:58:13;104602.63;;;-139.81
8533;BMP280;4304;53.876;10.662;2022-12-17T04:00:38;104632.91;;;-139.81
8533;BMP280;4304;53.876;10.662;2022-12-17T04:03:04;104645.03;;;-139.81
8533;BMP280;4304;53.876;10.662;2022-12-17T04:05:29;104663.22;;;-139.81
8533;BMP280;4304;53.876;10.662;2022-12-17T04:07:54;104636.97;;;-139.81
8533;BMP280;4304;53.876;10.662;2022-12-17T04:10:19;104667.28;;;-139.81
8533;BMP280;4304;53.876;10.662;2022-12-17T04:12:44;104683.44;;;-139.81
8533;BMP280;4304;53.876;10.662;2022-12-17T04:15:10;104699.59;;;-139.81
8533;BMP280;4304;53.876;10.662;2022-12-17T04:17:35;104707.69;;;-139.81
8533;BMP280;4304;53.876;10.662;2022-12-17T04:20:00;104691.53;;;-139.81
8533;BMP280;4304;53.876;10.662;2022-12-17T04:22:26;104691.53;;;-139.81
8533;BMP280;4304;53.876;10.662;2022-12-17T04:24:51;104505.63;;;-139.81
8533;BMP280;4304;53.876;10.662;2022-12-17T04:27:16;104687.47;;;-139.81
8533;BMP280;4304;53.876;10.662;2022-12-17T04:29:41;104709.72;;;-139.81
8533;BMP280;4304;53.876;10.662;2022-12-17T04:32:06;104669.28;;;-139.81
8533;BMP280;4304;53.876;10.662;2022-12-17T04:34:32;104667.28;;;-139.81
8533;BMP280;4304;53.876;10.662;2022-12-17T04:37:03;104738.00;;;-139.81
8533;BMP280;4304;53.876;10.662;2022-12-17T04:39:28;104618.78;;;-139.81
8533;BMP280;4304;53.876;10.662;2022-12-17T04:41:54;104671.31;;;-139.81
8533;BMP280;4304;53.876;10.662;2022-12-17T04:44:19;104671.31;;;-139.81
8533;BMP280;4304;53.876;10.662;2022-12-17T04:47:01;104764.28;;;-139.81
8533;BMP280;4304;53.876;10.662;2022-12-17T04:49:26;104657.16;;;-139.81
8533;BMP280;4304;53.876;10.662;2022-12-17T04:51:51;104707.69;;;-139.81
8533;BMP280;4304;53.876;10.662;2022-12-17T04:54:16;104693.53;;;-139.81
8533;BMP280;4304;53.876;10.662;2022-12-17T04:56:42;104675.34;;;-139.81
8533;BMP280;4304;53.876;10.662;2022-12-17T04:59:07;104687.47;;;-139.81
8533;BMP280;4304;53.876;10.662;2022-12-17T05:01:32;104699.59;;;-139.81
8533;BMP280;4304;53.876;10.662;2022-12-17T05:03:58;104655.16;;;-139.81
8533;BMP280;4304;53.876;10.662;2022-12-17T05:06:30;104723.84;;;-139.81
8533;BMP280;4304;53.876;10.662;2022-12-17T05:09:08;104671.31;;;-139.81
8533;BMP280;4304;53.876;10.662;2022-12-17T05:11:42;104675.34;;;-139.81
8533;BMP280;4304;53.876;10.662;2022-12-17T05:14:07;104604.63;;;-139.81
8533;BMP280;4304;53.876;10.662;2022-12-17T05:16:32;104586.44;;;-139.81
8533;BMP280;4304;53.876;10.662;2022-12-17T05:18:58;104548.06;;;-139.81
8533;BMP280;4304;53.876;10.662;2022-12-17T05:21:23;104556.13;;;-139.81
8533;BMP280;4304;53.876;10.662;2022-12-17T05:23:48;104572.31;;;-139.81
8533;BMP280;4304;53.876;10.662;2022-12-17T05:26:45;104624.84;;;-139.81
8533;BMP280;4304;53.876;10.662;2022-12-17T05:29:10;104580.38;;;-139.81
8533;BMP280;4304;53.876;10.662;2022-12-17T05:31:35;104546.03;;;-139.81
8533;BMP280;4304;53.876;10.662;2022-12-17T05:34:00;104529.88;;;-139.81
8533;BMP280;4304;53.876;10.662;2022-12-17T05:36:26;104533.91;;;-139.81
8533;BMP280;4304;53.876;10.662;2022-12-17T05:38:52;104537.94;;;-139.81
8533;BMP280;4304;53.876;10.662;2022-12-17T05:41:17;104489.47;;;-139.81
8533;BMP280;4304;53.876;10.662;2022-12-17T05:43:43;104487.44;;;-139.81
8533;BMP280;4304;53.876;10.662;2022-12-17T05:46:08;104445.00;;;-139.81
8533;BMP280;4304;53.876;10.662;2022-12-17T05:48:33;104426.81;;;-139.81
8533;BMP280;4304;53.876;10.662;2022-12-17T05:50:59;104374.28;;;-139.81
8533;BMP280;4304;53.876;10.662;2022-12-17T05:53:24;104331.84;;;-139.81
8533;BMP280;4304;53.876;10.662;2022-12-17T05:55:50;104346.00;;;-139.81
8533;BMP280;4304;53.876;10.662;2022-12-17T05:58:16;104311.66;;;-139.81
8533;BMP280;4304;53.876;10.662;2022-12-17T06:00:41;104299.53;;;-139.81
8533;BMP280;4304;53.876;10.662;2022-12-17T06:03:07;104295.47;;;-139.81
8533;BMP280;4304;53.876;10.662;2022-12-17T06:05:33;104251.03;;;-139.81
8533;BMP280;4304;53.876;10.662;2022-12-17T06:08:06;104267.19;;;-139.81
8533;BMP280;4304;53.876;10.662;2022-12-17T06:10:31;104216.69;;;-139.81
8533;BMP280;4304;53.876;10.662;2022-12-17T06:12:56;104226.78;;;-139.81
8533;BMP280;4304;53.876;10.662;2022-12-17T06:15:22;104202.53;;;-139.81
8533;BMP280;4304;53.876;10.662;2022-12-17T06:17:56;104255.06;;;-139.81
8533;BMP280;4304;53.876;10.662;2022-12-17T06:20:21;104186.38;;;-139.81
8533;BMP280;4304;53.876;10.662;2022-12-17T06:22:46;104172.25;;;-139.81
8533;BMP280;4304;53.876;10.662;2022-12-17T06:25:11;104158.09;;;-139.81
8533;BMP280;4304;53.876;10.662;2022-12-17T06:27:38;104067.19;;;-139.81
8533;BMP280;4304;53.876;10.662;2022-12-17T06:30:03;104008.59;;;-139.81
8533;BMP280;4304;53.876;10.662;2022-12-17T06:32:29;103978.28;;;-139.81
8533;BMP280;4304;53.876;10.662;2022-12-17T06:34:57;103972.22;;;-139.81
8533;BMP280;4304;53.876;10.662;2022-12-17T06:37:23;103909.59;;;-139.81
8533;BMP280;4304;53.876;10.662;2022-12-17T06:39:49;103846.97;;;-139.81
8533;BMP280;4304;53.876;10.662;2022-12-17T06:42:14;103834.84;;;-139.81
8533;BMP280;4304;53.876;10.662;2022-12-17T06:44:39;103830.81;;;-139.81
8533;BMP280;4304;53.876;10.662;2022-12-17T06:47:04;103743.94;;;-139.81
8533;BMP280;4304;53.876;10.662;2022-12-17T06:49:29;103762.13;;;-139.81
8533;BMP280;4304;53.876;10.662;2022-12-17T06:51:55;103719.72;;;-139.81
8533;BMP280;4304;53.876;10.662;2022-12-17T06:54:20;103703.56;;;-139.81
8533;BMP280;4304;53.876;10.662;2022-12-17T06:56:45;103673.25;;;-139.81
8533;BMP280;4304;53.876;10.662;2022-12-17T06:59:11;103681.34;;;-139.81
8533;BMP280;4304;53.876;10.662;2022-12-17T07:01:36;103624.78;;;-139.81
8533;BMP280;4304;53.876;10.662;2022-12-17T07:04:02;103632.84;;;-139.81
8533;BMP280;4304;53.876;10.662;2022-12-17T07:06:27;103624.78;;;-139.81
8533;BMP280;4304;53.876;10.662;2022-12-17T07:08:53;103586.41;;;-139.81
8533;BMP280;4304;53.876;10.662;2022-12-17T07:11:18;103588.41;;;-139.81
8533;BMP280;4304;53.876;10.662;2022-12-17T07:13:44;103566.19;;;-139.81
8533;BMP280;4304;53.876;10.662;2022-12-17T07:16:09;103503.56;;;-139.81
8533;BMP280;4304;53.876;10.662;2022-12-17T07:18:34;103529.84;;;-139.81
8533;BMP280;4304;53.876;10.662;2022-12-17T07:21:00;103503.56;;;-139.81
8533;BMP280;4304;53.876;10.662;2022-12-17T07:23:39;103570.22;;;-139.81
8533;BMP280;4304;53.876;10.662;2022-12-17T07:26:04;103473.28;;;-139.81
8533;BMP280;4304;53.876;10.662;2022-12-17T07:28:30;103440.97;;;-139.81
8533;BMP280;4304;53.876;10.662;2022-12-17T07:30:56;103422.78;;;-139.81
8533;BMP280;4304;53.876;10.662;2022-12-17T07:33:21;103309.66;;;-139.81
8533;BMP280;4304;53.876;10.662;2022-12-17T07:35:47;103459.13;;;-139.81
8533;BMP280;4304;53.876;10.662;2022-12-17T07:38:13;103505.59;;;-139.81
8533;BMP280;4304;53.876;10.662;2022-12-17T07:40:39;103580.34;;;-139.81
8533;BMP280;4304;53.876;10.662;2022-12-17T07:43:12;103604.56;;;-139.81
8533;BMP280;4304;53.876;10.662;2022-12-17T07:45:38;103535.91;;;-139.81
8533;BMP280;4304;53.876;10.662;2022-12-17T07:48:03;103491.47;;;-139.81
8533;BMP280;4304;53.876;10.662;2022-12-17T07:50:28;103440.97;;;-139.81
8533;BMP280;4304;53.876;10.662;2022-12-17T07:53:01;103481.34;;;-139.81
8533;BMP280;4304;53.876;10.662;2022-12-17T07:55:46;103523.78;;;-139.81
8533;BMP280;4304;53.876;10.662;2022-12-17T07:58:11;103527.81;;;-139.81
8533;BMP280;4304;53.876;10.662;2022-12-17T08:00:36;103667.19;;;-139.81
8533;BMP280;4304;53.876;10.662;2022-12-17T08:03:02;103727.78;;;-139.81
8533;BMP280;4304;53.876;10.662;2022-12-17T08:05:27;103798.50;;;-139.81
8533;BMP280;4304;53.876;10.662;2022-12-17T08:07:52;103834.84;;;-139.81
8533;BMP280;4304;53.876;10.662;2022-12-17T08:10:17;103822.75;;;-139.81
8533;BMP280;4304;53.876;10.662;2022-12-17T08:12:56;103931.81;;;-139.81
8533;BMP280;4304;53.876;10.662;2022-12-17T08:15:22;103891.44;;;-139.81
8533;BMP280;4304;53.876;10.662;2022-12-17T08:17:48;103937.88;;;-139.81
8533;BMP280;4304;53.876;10.662;2022-12-17T08:20:21;104038.91;;;-139.81
8533;BMP280;4304;53.876;10.662;2022-12-17T08:22:47;104024.75;;;-139.81
8533;BMP280;4304;53.876;10.662;2022-12-17T08:25:12;104061.13;;;-139.81
8533;BMP280;4304;53.876;10.662;2022-12-17T08:27:37;104121.72;;;-139.81
8533;BMP280;4304;53.876;10.662;2022-12-17T08:30:03;104160.13;;;-139.81
8533;BMP280;4304;53.876;10.662;2022-12-17T08:32:29;104184.38;;;-139.81
8533;BMP280;4304;53.876;10.662;2022-12-17T08:34:54;104238.91;;;-139.81
8533;BMP280;4304;53.876;10.662;2022-12-17T08:37:20;104291.44;;;-139.81
8533;BMP280;4304;53.876;10.662;2022-12-17T08:39:45;104289.44;;;-139.81
8533;BMP280;4304;53.876;10.662;2022-12-17T08:42:10;104362.16;;;-139.81
8533;BMP280;4304;53.876;10.662;2022-12-17T08:44:36;104360.13;;;-139.81
8533;BMP280;4304;53.876;10.662;2022-12-17T08:47:01;104424.81;;;-139.81
8533;BMP280;4304;53.876;10.662;2022-12-17T08:49:30;104392.47;;;-139.81
8533;BMP280;4304;53.876;10.662;2022-12-17T08:51:55;104449.03;;;-139.81
8533;BMP280;4304;53.876;10.662;2022-12-17T08:54:20;104509.66;;;-139.81
8533;BMP280;4304;53.876;10.662;2022-12-17T08:56:45;104531.88;;;-139.81
8533;BMP280;4304;53.876;10.662;2022-12-17T08:59:11;104622.81;;;-139.81
8533;BMP280;4304;53.876;10.662;2022-12-17T09:01:36;104634.94;;;-139.81
8533;BMP280;4304;53.876;10.662;2022-12-17T09:04:01;104622.81;;;-139.81
8533;BMP280;4304;53.876;10.662;2022-12-17T09:06:27;104606.66;;;-139.81
8533;BMP280;4304;53.876;10.662;2022-12-17T09:08:52;104602.63;;;-139.81
8533;BMP280;4304;53.876;10.662;2022-12-17T09:11:17;104614.72;;;-139.81
8533;BMP280;4304;53.876;10.662;2022-12-17T09:13:44;104671.31;;;-139.81
8533;BMP280;4304;53.876;10.662;2022-12-17T09:16:09;104699.59;;;-139.81
8533;BMP280;4304;53.876;10.662;2022-12-17T09:18:34;104946.16;;;-139.81
8533;BMP280;4304;53.876;10.662;2022-12-17T09:21:03;105257.38;;;-139.81
8533;BMP280;4304;53.876;10.662;2022-12-17T09:23:28;105459.50;;;-139.81
8533;BMP280;4304;53.876;10.662;2022-12-17T09:25:55;105698.03;;;-139.81
8533;BMP280;4304;53.876;10.662;2022-12-17T09:28:27;105940.59;;;-139.81
8533;BMP280;4304;53.876;10.662;2022-12-17T09:30:57;106049.78;;;-139.81
8533;BMP280;4304;53.876;10.662;2022-12-17T09:33:23;106098.28;;;-139.81
8533;BMP280;4304;53.876;10.662;2022-12-17T09:35:48;106292.38;;;-139.81
8533;BMP280;4304;53.876;10.662;2022-12-17T09:38:14;106413.69;;;-139.81
8533;BMP280;4304;53.876;10.662;2022-12-17T09:40:41;106579.50;;;-139.81
8533;BMP280;4304;53.876;10.662;2022-12-17T09:43:41;106632.06;;;-139.81
8533;BMP280;4304;53.876;10.662;2022-12-17T09:46:17;106704.88;;;-139.81
8533;BMP280;4304;53.876;10.662;2022-12-17T09:48:53;106717.00;;;-139.81
8533;BMP280;4304;53.876;10.662;2022-12-17T09:51:24;106510.75;;;-139.81
8533;BMP280;4304;53.876;10.662;2022-12-17T09:53:51;106195.31;;;-139.81
8533;BMP280;4304;53.876;10.662;2022-12-17T09:56:20;105942.63;;;-139.81
8533;BMP280;4304;53.876;10.662;2022-12-17T09:58:47;105712.16;;;-139.81
8533;BMP280;4304;53.876;10.662;2022-12-17T10:01:18;105584.81;;;-139.81
8533;BMP280;4304;53.876;10.662;2022-12-17T10:03:44;105487.78;;;-139.81
8533;BMP280;4304;53.876;10.662;2022-12-17T10:06:14;105394.81;;;-139.81
8533;BMP280;4304;53.876;10.662;2022-12-17T10:08:41;105356.41;;;-139.81
8533;BMP280;4304;53.876;10.662;2022-12-17T10:11:23;105398.88;;;-139.81
8533;BMP280;4304;53.876;10.662;2022-12-17T10:13:49;105269.50;;;-139.81
8533;BMP280;4304;53.876;10.662;2022-12-17T10:16:38;105309.94;;;-139.81
8533;BMP280;4304;53.876;10.662;2022-12-17T10:19:12;105281.63;;;-139.81
8533;BMP280;4304;53.876;10.662;2022-12-17T10:21:40;105289.72;;;-139.81
8533;BMP280;4304;53.876;10.662;2022-12-17T10:24:09;105322.06;;;-139.81
8533;BMP280;4304;53.876;10.662;2022-12-17T10:26:35;105285.69;;;-139.81
8533;BMP280;4304;53.876;10.662;2022-12-17T10:29:08;105279.63;;;-139.81
8533;BMP280;4304;53.876;10.662;2022-12-17T10:31:33;105245.25;;;-139.81
8533;BMP280;4304;53.876;10.662;2022-12-17T10:33:59;105352.38;;;-139.81
8533;BMP280;4304;53.876;10.662;2022-12-17T10:36:25;105360.47;;;-139.81
8533;BMP280;4304;53.876;10.662;2022-12-17T10:38:54;105374.59;;;-139.81
8533;BMP280;4304;53.876;10.662;2022-12-17T10:41:22;105350.34;;;-139.81
8533;BMP280;4304;53.876;10.662;2022-12-17T10:43:48;105342.28;;;-139.81
8533;BMP280;4304;53.876;10.662;2022-12-17T10:46:26;105406.94;;;-139.81
8533;BMP280;4304;53.876;10.662;2022-12-17T10:49:02;105431.19;;;-139.81
8533;BMP280;4304;53.876;10.662;2022-12-17T10:51:34;105435.25;;;-139.81
8533;BMP280;4304;53.876;10.662;2022-12-17T10:54:07;105447.38;;;-139.81
8533;BMP280;4304;53.876;10.662;2022-12-17T10:56:33;105427.16;;;-139.81
8533;BMP280;4304;53.876;10.662;2022-12-17T10:58:58;105384.72;;;-139.81
8533;BMP280;4304;53.876;10.662;2022-12-17T11:01:24;105443.34;;;-139.81
8533;BMP280;4304;53.876;10.662;2022-12-17T11:03:57;105501.94;;;-139.81
8533;BMP280;4304;53.876;10.662;2022-12-17T11:06:27;105510.03;;;-139.81
8533;BMP280;4304;53.876;10.662;2022-12-17T11:08:54;105499.94;;;-139.81
8533;BMP280;4304;53.876;10.662;2022-12-17T11:11:21;105503.97;;;-139.81
8533;BMP280;4304;53.876;10.662;2022-12-17T11:13:48;105471.63;;;-139.81
8533;BMP280;4304;53.876;10.662;2022-12-17T11:16:22;105501.94;;;-139.81
8533;BMP280;4304;53.876;10.662;2022-12-17T11:18:57;105483.75;;;-139.81
8533;BMP280;4304;53.876;10.662;2022-12-17T11:21:38;105578.75;;;-139.81
8533;BMP280;4304;53.876;10.662;2022-12-17T11:24:11;105596.94;;;-139.81
8533;BMP280;4304;53.876;10.662;2022-12-17T11:26:39;105584.81;;;-139.81
8533;BMP280;4304;53.876;10.662;2022-12-17T11:29:11;105572.69;;;-139.81
8533;BMP280;4304;53.876;10.662;2022-12-17T11:31:57;105598.97;;;-139.81
8533;BMP280;4304;53.876;10.662;2022-12-17T11:42:33;105645.47;;;-139.81
8533;BMP280;4304;53.876;10.662;2022-12-17T11:50:36;105623.22;;;-139.81
8533;BMP280;4304;53.876;10.662;2022-12-17T11:56:01;105568.66;;;-139.81
8533;BMP280;4304;53.876;10.662;2022-12-17T11:58:39;105698.03;;;-139.81
8533;BMP280;4304;53.876;10.662;2022-12-17T12:09:49;105714.19;;;-139.81
8533;BMP280;4304;53.876;10.662;2022-12-17T12:17:37;105807.19;;;-139.81
8533;BMP280;4304;53.876;10.662;2022-12-17T12:23:04;105782.91;;;-139.81
8533;BMP280;4304;53.876;10.662;2022-12-17T12:25:59;105764.72;;;-139.81
8533;BMP280;4304;53.876;10.662;2022-12-17T12:28:42;105865.81;;;-139.81
8533;BMP280;4304;53.876;10.662;2022-12-17T12:34:16;105819.31;;;-139.81
8533;BMP280;4304;53.876;10.662;2022-12-17T12:36:43;105791.00;;;-139.81
8533;BMP280;4304;53.876;10.662;2022-12-17T12:39:12;105831.44;;;-139.81
8533;BMP280;4304;53.876;10.662;2022-12-17T12:41:56;105823.34;;;-139.81
8533;BMP280;4304;53.876;10.662;2022-12-17T12:47:22;105772.81;;;-139.81
8533;BMP280;4304;53.876;10.662;2022-12-17T12:50:04;105811.22;;;-139.81
8533;BMP280;4304;53.876;10.662;2022-12-17T12:52:35;105811.22;;;-139.81
8533;BMP280;4304;53.876;10.662;2022-12-17T12:55:01;105774.84;;;-139.81
8533;BMP280;4304;53.876;10.662;2022-12-17T12:57:32;105831.44;;;-139.81
8533;BMP280;4304;53.876;10.662;2022-12-17T12:59:58;105815.25;;;-139.81
8533;BMP280;4304;53.876;10.662;2022-12-17T13:02:26;105817.28;;;-139.81
8533;BMP280;4304;53.876;10.662;2022-12-17T13:04:52;105797.06;;;-139.81
8533;BMP280;4304;53.876;10.662;2022-12-17T13:07:24;105807.19;;;-139.81
8533;BMP280;4304;53.876;10.662;2022-12-17T13:09:53;105819.31;;;-139.81
8533;BMP280;4304;53.876;10.662;2022-12-17T13:12:26;105766.75;;;-139.81
8533;BMP280;4304;53.876;10.662;2022-12-17T13:25:15;105807.19;;;-139.81
8533;BMP280;4304;53.876;10.662;2022-12-17T13:27:41;105740.47;;;-139.81
8533;BMP280;4304;53.876;10.662;2022-12-17T13:35:41;105766.75;;;-139.81
8533;BMP280;4304;53.876;10.662;2022-12-17T13:38:22;105795.03;;;-139.81
8533;BMP280;4304;53.876;10.662;2022-12-17T13:41:13;105815.25;;;-139.81
8533;BMP280;4304;53.876;10.662;2022-12-17T13:43:51;105720.25;;;-139.81
8533;BMP280;4304;53.876;10.662;2022-12-17T13:46:20;105766.75;;;-139.81
8533;BMP280;4304;53.876;10.662;2022-12-17T13:51:21;105669.72;;;-139.81
8533;BMP280;4304;53.876;10.662;2022-12-17T13:53:54;105702.06;;;-139.81
8533;BMP280;4304;53.876;10.662;2022-12-17T13:56:33;105750.56;;;-139.81
8533;BMP280;4304;53.876;10.662;2022-12-17T13:59:00;105687.91;;;-139.81
8533;BMP280;4304;53.876;10.662;2022-12-17T14:01:26;105647.47;;;-139.81
8533;BMP280;4304;53.876;10.662;2022-12-17T14:03:56;105681.84;;;-139.81
8533;BMP280;4304;53.876;10.662;2022-12-17T14:06:25;105653.56;;;-139.81
8533;BMP280;4304;53.876;10.662;2022-12-17T14:08:53;105625.25;;;-139.81
8533;BMP280;4304;53.876;10.662;2022-12-17T14:11:19;105586.84;;;-139.81
8533;BMP280;4304;53.876;10.662;2022-12-17T14:13:47;105641.41;;;-139.81
8533;BMP280;4304;53.876;10.662;2022-12-17T14:16:17;105623.22;;;-139.81
8533;BMP280;4304;53.876;10.662;2022-12-17T14:18:50;105645.47;;;-139.81
8533;BMP280;4304;53.876;10.662;2022-12-17T14:21:16;105572.69;;;-139.81
8533;BMP280;4304;53.876;10.662;2022-12-17T14:23:43;105564.59;;;-139.81
8533;BMP280;4304;53.876;10.662;2022-12-17T14:26:10;105439.28;;;-139.81
8533;BMP280;4304;53.876;10.662;2022-12-17T14:28:48;105568.66;;;-139.81
8533;BMP280;4304;53.876;10.662;2022-12-17T14:33:41;105487.78;;;-139.81
8533;BMP280;4304;53.876;10.662;2022-12-17T14:36:18;105489.81;;;-139.81
8533;BMP280;4304;53.876;10.662;2022-12-17T14:38:58;105524.19;;;-139.81
8533;BMP280;4304;53.876;10.662;2022-12-17T14:41:25;105423.13;;;-139.81
8533;BMP280;4304;53.876;10.662;2022-12-17T14:43:55;105429.19;;;-139.81
8533;BMP280;4304;53.876;10.662;2022-12-17T14:46:21;105445.34;;;-139.81
8533;BMP280;4304;53.876;10.662;2022-12-17T14:48:55;105396.84;;;-139.81
8533;BMP280;4304;53.876;10.662;2022-12-17T14:51:38;105376.63;;;-139.81
8533;BMP280;4304;53.876;10.662;2022-12-17T14:56:40;105342.28;;;-139.81
8533;BMP280;4304;53.876;10.662;2022-12-17T15:01:55;105247.28;;;-139.81
8533;BMP280;4304;53.876;10.662;2022-12-17T15:04:21;105229.09;;;-139.81